createdAt,value
2018-03-29T00:00:41.572Z,994.91
2018-03-29T00:05:38.147Z,994.91
2018-03-29T00:10:37.430Z,994.84
2018-03-29T00:15:38.335Z,994.99
2018-03-29T00:20:34.579Z,994.97
2018-03-29T00:25:34.845Z,995.07
2018-03-29T00:30:31.548Z,995.05
2018-03-29T00:35:32.069Z,995.13
2018-03-29T00:40:31.630Z,995.23
2018-03-29T00:45:26.335Z,995.30
2018-03-29T00:50:22.995Z,995.34
2018-03-29T00:55:22.266Z,995.40
2018-03-29T01:00:18.718Z,995.40
2018-03-29T01:05:13.989Z,995.59
2018-03-29T01:10:11.184Z,995.61
2018-03-29T01:15:11.578Z,995.62
2018-03-29T01:20:07.452Z,995.53
2018-03-29T01:25:06.855Z,995.61
2018-03-29T01:30:06.027Z,995.67
2018-03-29T01:35:06.013Z,995.83
2018-03-29T01:40:01.702Z,995.89
2018-03-29T01:44:59.229Z,995.92
2018-03-29T01:49:58.427Z,996.00
2018-03-29T01:54:57.260Z,996.05
2018-03-29T01:59:52.849Z,996.03
2018-03-29T02:04:52.454Z,996.20
2018-03-29T02:09:51.072Z,996.24
2018-03-29T02:14:50.880Z,996.15
2018-03-29T02:19:46.699Z,996.30
2018-03-29T02:24:48.405Z,996.33
2018-03-29T02:29:44.101Z,996.32
2018-03-29T02:34:43.570Z,996.42
2018-03-29T02:39:42.320Z,996.47
2018-03-29T02:44:37.254Z,996.37
2018-03-29T02:49:33.349Z,996.45
2018-03-29T02:54:29.257Z,996.50
2018-03-29T02:59:26.075Z,996.47
2018-03-29T03:04:25.685Z,996.54
2018-03-29T03:09:25.294Z,996.58
2018-03-29T03:14:24.836Z,996.67
2018-03-29T03:19:25.190Z,996.70
2018-03-29T03:24:25.281Z,996.77
2018-03-29T03:29:21.676Z,996.89
2018-03-29T03:34:17.340Z,996.92
2018-03-29T03:39:17.945Z,996.92
2018-03-29T03:44:14.908Z,996.98
2018-03-29T03:49:15.368Z,997.07
2018-03-29T03:54:15.020Z,997.03
2018-03-29T03:59:10.504Z,997.09
2018-03-29T04:04:07.116Z,997.22
2018-03-29T04:09:03.966Z,997.19
2018-03-29T04:14:03.701Z,997.23
2018-03-29T04:19:03.462Z,997.16
2018-03-29T04:24:01.813Z,997.25
2018-03-29T04:28:56.824Z,997.35
2018-03-29T04:33:54.474Z,997.35
2018-03-29T04:38:55.232Z,997.49
2018-03-29T04:43:55.173Z,997.33
2018-03-29T04:48:53.770Z,997.37
2018-03-29T04:53:54.113Z,997.41
2018-03-29T04:58:52.653Z,997.40
2018-03-29T05:03:47.311Z,997.36
2018-03-29T05:08:48.314Z,997.49
2018-03-29T05:13:45.030Z,997.49
2018-03-29T05:18:41.376Z,997.53
2018-03-29T05:23:37.008Z,997.57
2018-03-29T05:28:37.801Z,997.66
2018-03-29T05:33:33.415Z,997.65
2018-03-29T05:38:29.963Z,997.61
2018-03-29T05:43:26.943Z,997.68
2018-03-29T05:48:26.421Z,997.78
2018-03-29T05:53:27.462Z,997.78
2018-03-29T05:58:26.903Z,997.92
2018-03-29T06:03:21.678Z,997.89
2018-03-29T06:08:21.582Z,997.89
2018-03-29T06:13:21.404Z,998.00
2018-03-29T06:18:21.585Z,997.96
2018-03-29T06:23:16.075Z,997.96
2018-03-29T06:28:17.462Z,998.07
2018-03-29T06:33:17.446Z,998.10
2018-03-29T06:38:17.327Z,998.15
2018-03-29T06:43:12.307Z,998.06
2018-03-29T06:48:13.349Z,998.22
2018-03-29T06:53:09.306Z,998.18
2018-03-29T06:58:09.461Z,998.27
2018-03-29T07:03:08.472Z,998.23
2018-03-29T07:08:08.620Z,998.32
2018-03-29T07:13:07.228Z,998.15
2018-03-29T07:18:06.811Z,998.26
2018-03-29T07:23:09.048Z,998.20
2018-03-29T07:28:10.052Z,998.39
2018-03-29T07:33:08.635Z,998.30
2018-03-29T07:38:09.576Z,998.40
2018-03-29T07:43:10.570Z,998.44
2018-03-29T07:48:09.498Z,998.39
2018-03-29T07:58:10.844Z,998.54
2018-03-29T08:03:08.578Z,998.51
2018-03-29T08:08:09.988Z,998.44
2018-03-29T08:13:09.925Z,998.54
2018-03-29T08:18:08.822Z,998.63
2018-03-29T08:23:08.791Z,998.56
2018-03-29T08:28:11.619Z,998.69
2018-03-29T08:33:11.055Z,998.70
2018-03-29T08:43:06.443Z,998.79
2018-03-29T08:48:06.417Z,998.78
2018-03-29T08:53:08.629Z,998.85
2018-03-29T08:58:07.441Z,998.85
2018-03-29T09:03:06.854Z,998.97
2018-03-29T09:13:09.149Z,998.87
2018-03-29T09:18:08.215Z,999.04
2018-03-29T09:23:03.469Z,999.05
2018-03-29T09:27:59.315Z,999.01
2018-03-29T09:33:00.117Z,999.09
2018-03-29T09:37:55.901Z,999.10
2018-03-29T09:47:56.387Z,999.15
2018-03-29T09:52:52.588Z,999.13
2018-03-29T09:57:53.200Z,999.19
2018-03-29T10:02:52.247Z,999.16
2018-03-29T10:07:51.194Z,999.20
2018-03-29T10:12:50.367Z,999.23
2018-03-29T10:17:45.459Z,999.20
2018-03-29T10:22:42.580Z,999.25
2018-03-29T10:27:39.603Z,999.11
2018-03-29T10:32:35.049Z,999.19
2018-03-29T10:37:32.131Z,999.14
2018-03-29T10:42:30.981Z,999.21
2018-03-29T10:47:27.493Z,999.24
2018-03-29T10:52:24.451Z,999.30
2018-03-29T10:57:24.812Z,999.31
2018-03-29T11:02:21.423Z,999.23
2018-03-29T11:07:22.221Z,999.26
2018-03-29T11:12:18.617Z,999.35
2018-03-29T11:17:22.428Z,999.30
2018-03-29T11:22:23.160Z,999.16
2018-03-29T11:27:23.535Z,999.22
2018-03-29T11:32:17.741Z,999.37
2018-03-29T11:37:18.442Z,999.31
2018-03-29T11:42:18.163Z,999.21
2018-03-29T11:47:15.868Z,999.24
2018-03-29T11:52:11.617Z,999.29
2018-03-29T11:57:13.501Z,999.20
2018-03-29T12:02:09.744Z,999.15
2018-03-29T12:07:12.006Z,999.08
2018-03-29T12:12:11.069Z,999.04
2018-03-29T12:17:10.107Z,999.12
2018-03-29T12:22:05.024Z,998.98
2018-03-29T12:27:06.726Z,998.84
2018-03-29T12:32:04.860Z,998.75
2018-03-29T12:37:03.684Z,998.86
2018-03-29T12:41:58.285Z,998.77
2018-03-29T12:46:58.096Z,998.83
2018-03-29T12:51:58.117Z,998.79
2018-03-29T12:56:52.055Z,998.87
2018-03-29T13:01:48.518Z,998.81
2018-03-29T13:06:47.489Z,998.86
2018-03-29T13:11:45.768Z,999.15
2018-03-29T13:16:41.677Z,999.16
2018-03-29T13:21:41.455Z,998.99
2018-03-29T13:26:36.452Z,999.06
2018-03-29T13:31:35.804Z,999.09
2018-03-29T13:36:30.647Z,999.18
2018-03-29T13:41:27.440Z,999.21
2018-03-29T13:46:22.872Z,999.13
2018-03-29T13:51:23.853Z,999.22
2018-03-29T13:56:26.307Z,999.14
2018-03-29T14:01:22.906Z,999.13
2018-03-29T14:06:23.647Z,999.12
2018-03-29T14:11:18.619Z,999.04
2018-03-29T14:16:19.300Z,999.03
2018-03-29T14:21:18.313Z,999.04
2018-03-29T14:26:17.068Z,998.94
2018-03-29T14:31:13.381Z,999.13
2018-03-29T14:36:13.860Z,999.15
2018-03-29T14:41:14.425Z,999.21
2018-03-29T14:46:10.480Z,999.17
2018-03-29T14:51:07.023Z,999.18
2018-03-29T14:56:07.236Z,999.25
2018-03-29T15:01:06.767Z,999.27
2018-03-29T15:06:05.239Z,999.45
2018-03-29T15:11:00.931Z,999.48
2018-03-29T15:15:57.331Z,999.45
2018-03-29T15:20:52.449Z,999.43
2018-03-29T15:25:51.734Z,999.28
2018-03-29T15:30:46.540Z,999.20
2018-03-29T15:35:43.482Z,999.25
2018-03-29T15:40:39.982Z,999.29
2018-03-29T15:45:39.662Z,999.28
2018-03-29T15:50:40.084Z,999.18
2018-03-29T15:55:39.057Z,999.24
2018-03-29T16:00:34.560Z,999.15
2018-03-29T16:05:31.206Z,999.04
2018-03-29T16:10:30.297Z,998.97
2018-03-29T16:15:25.674Z,999.05
2018-03-29T16:20:25.345Z,999.12
2018-03-29T16:25:24.831Z,999.12
2018-03-29T16:30:19.569Z,999.16
2018-03-29T16:35:19.442Z,999.19
2018-03-29T16:40:15.364Z,999.22
2018-03-29T16:45:10.943Z,999.23
2018-03-29T16:50:07.723Z,999.27
2018-03-29T16:55:03.133Z,999.42
2018-03-29T17:00:05.377Z,999.29
2018-03-29T17:05:00.727Z,999.27
2018-03-29T17:09:57.389Z,999.34
2018-03-29T17:14:52.797Z,999.30
2018-03-29T17:19:48.453Z,999.42
2018-03-29T17:24:44.271Z,999.53
2018-03-29T17:29:43.966Z,999.54
2018-03-29T17:34:38.756Z,999.49
2018-03-29T17:39:34.470Z,999.60
2018-03-29T17:44:34.191Z,999.60
2018-03-29T17:49:29.971Z,999.62
2018-03-29T17:54:26.727Z,999.67
2018-03-29T17:59:26.131Z,999.71
2018-03-29T18:04:21.701Z,999.73
2018-03-29T18:09:21.933Z,999.87
2018-03-29T18:14:20.681Z,999.92
2018-03-29T18:19:20.656Z,1000.05
2018-03-29T18:24:19.323Z,1000.06
2018-03-29T18:29:19.523Z,1000.09
2018-03-29T18:34:19.025Z,1000.11
2018-03-29T18:39:14.661Z,1000.15
2018-03-29T18:44:10.184Z,1000.17
2018-03-29T18:49:05.785Z,1000.14
2018-03-29T18:54:01.475Z,1000.26
2018-03-29T18:58:57.144Z,1000.28
2018-03-29T19:03:52.924Z,1000.32
2018-03-29T19:08:53.436Z,1000.42
2018-03-29T19:13:48.278Z,1000.35
2018-03-29T19:18:48.029Z,1000.46
2018-03-29T19:23:46.333Z,1000.44
2018-03-29T19:28:43.196Z,1000.49
2018-03-29T19:33:43.208Z,1000.47
2018-03-29T19:38:43.762Z,1000.62
2018-03-29T19:43:38.227Z,1000.55
2018-03-29T19:48:33.719Z,1000.60
2018-03-29T19:53:33.343Z,1000.53
2018-03-29T19:58:29.141Z,1000.49
2018-03-29T20:03:25.487Z,1000.52
2018-03-29T20:08:20.802Z,1000.58
2018-03-29T20:13:16.536Z,1000.53
2018-03-29T20:18:12.994Z,1000.50
2018-03-29T20:23:08.918Z,1000.56
2018-03-29T20:28:04.537Z,1000.54
2018-03-29T20:33:01.094Z,1000.61
2018-03-29T20:38:01.907Z,1000.56
2018-03-29T20:42:56.567Z,1000.52
2018-03-29T20:47:56.124Z,1000.55
2018-03-29T20:52:50.541Z,1000.53
2018-03-29T20:57:50.315Z,1000.37
2018-03-29T21:02:46.147Z,1000.42
2018-03-29T21:07:42.575Z,1000.41
2018-03-29T21:12:38.423Z,1000.46
2018-03-29T21:17:39.526Z,1000.40
2018-03-29T21:22:35.169Z,1000.41
2018-03-29T21:27:30.696Z,1000.39
2018-03-29T21:32:27.575Z,1000.45
2018-03-29T21:37:26.867Z,1000.47
2018-03-29T21:42:22.448Z,1000.48
2018-03-29T21:47:18.314Z,1000.49
2018-03-29T21:52:15.507Z,1000.53
2018-03-29T21:57:11.277Z,1000.48
2018-03-29T22:02:08.148Z,1000.45
2018-03-29T22:07:03.610Z,1000.57
2018-03-29T22:12:03.357Z,1000.57
2018-03-29T22:17:03.158Z,1000.56
2018-03-29T22:21:57.855Z,1000.49
2018-03-29T22:26:53.758Z,1000.63
2018-03-29T22:31:53.222Z,1000.56
2018-03-29T22:36:52.131Z,1000.61
2018-03-29T22:41:47.079Z,1000.52
2018-03-29T22:46:43.056Z,1000.46
2018-03-29T22:51:38.678Z,1000.43
2018-03-29T22:56:38.562Z,1000.41
2018-03-29T23:01:33.095Z,1000.37
2018-03-29T23:06:28.478Z,1000.45
2018-03-29T23:11:28.117Z,1000.28
2018-03-29T23:16:24.001Z,1000.38
2018-03-29T23:21:20.443Z,1000.30
2018-03-29T23:26:16.485Z,1000.34
2018-03-29T23:31:17.037Z,1000.32
2018-03-29T23:36:15.460Z,1000.32
2018-03-29T23:41:10.482Z,1000.29
2018-03-29T23:46:07.494Z,1000.28
2018-03-29T23:51:04.124Z,1000.25
2018-03-29T23:55:59.549Z,1000.21
